createdAt,value
2022-08-01T00:00:20.037Z,20.00
2022-08-01T00:02:47.118Z,20.00
2022-08-01T00:05:14.316Z,20.00
2022-08-01T00:07:41.535Z,20.00
2022-08-01T00:10:13.773Z,19.90
2022-08-01T00:12:42.520Z,19.90
2022-08-01T00:15:11.664Z,19.90
2022-08-01T00:17:39.099Z,19.90
2022-08-01T00:20:09.082Z,19.90
2022-08-01T00:22:36.188Z,19.90
2022-08-01T00:25:04.046Z,19.90
2022-08-01T00:27:31.150Z,19.90
2022-08-01T00:30:12.219Z,19.90
2022-08-01T00:32:41.530Z,19.90
2022-08-01T00:35:08.748Z,19.90
2022-08-01T00:37:35.673Z,19.90
2022-08-01T00:40:02.672Z,19.90
2022-08-01T00:42:30.705Z,19.90
2022-08-01T00:44:58.486Z,19.90
2022-08-01T00:47:25.683Z,19.90
2022-08-01T00:49:52.808Z,19.90
2022-08-01T00:52:19.850Z,20.00
2022-08-01T00:54:47.040Z,20.00
2022-08-01T00:57:15.043Z,19.90
2022-08-01T00:59:43.246Z,19.90
2022-08-01T01:02:15.533Z,19.90
2022-08-01T01:04:44.031Z,19.90
2022-08-01T01:07:49.564Z,19.90
2022-08-01T01:10:19.905Z,19.90
2022-08-01T01:13:22.781Z,19.90
2022-08-01T01:16:13.025Z,20.00
2022-08-01T01:19:12.099Z,20.00
2022-08-01T01:22:18.819Z,20.00
2022-08-01T01:25:04.202Z,20.00
2022-08-01T01:27:51.295Z,19.90
2022-08-01T01:30:19.311Z,20.00
2022-08-01T01:32:51.122Z,20.00
2022-08-01T01:35:30.810Z,19.90
2022-08-01T01:38:05.164Z,19.90
2022-08-01T01:40:34.234Z,19.80
2022-08-01T01:43:01.396Z,19.80
2022-08-01T01:45:30.562Z,19.80
2022-08-01T01:47:58.840Z,19.80
2022-08-01T01:50:27.345Z,19.80
2022-08-01T01:52:56.325Z,19.80
2022-08-01T01:55:26.772Z,19.80
2022-08-01T01:57:56.699Z,19.80
2022-08-01T02:00:26.026Z,19.80
2022-08-01T02:02:55.194Z,19.80
2022-08-01T02:05:23.090Z,19.80
2022-08-01T02:07:51.769Z,19.80
2022-08-01T02:10:19.676Z,19.80
2022-08-01T02:12:50.985Z,19.80
2022-08-01T02:15:20.565Z,19.80
2022-08-01T02:17:50.801Z,19.80
2022-08-01T02:20:18.120Z,19.80
2022-08-01T02:23:02.639Z,19.70
2022-08-01T02:26:11.076Z,19.70
2022-08-01T02:28:35.723Z,19.70
2022-08-01T02:31:09.375Z,19.70
2022-08-01T02:33:39.638Z,19.70
2022-08-01T02:36:30.415Z,19.70
2022-08-01T02:38:56.939Z,19.70
2022-08-01T02:41:27.549Z,19.70
2022-08-01T02:44:00.417Z,19.70
2022-08-01T02:46:49.821Z,19.70
2022-08-01T02:49:20.423Z,19.80
2022-08-01T02:51:49.393Z,19.80
2022-08-01T02:54:19.521Z,19.80
2022-08-01T02:56:49.446Z,19.80
2022-08-01T02:59:22.493Z,19.80
2022-08-01T03:01:51.217Z,19.80
2022-08-01T03:04:20.789Z,19.90
2022-08-01T03:06:49.214Z,19.80
2022-08-01T03:09:17.041Z,19.90
2022-08-01T03:11:45.282Z,19.80
2022-08-01T03:14:13.430Z,19.80
2022-08-01T03:16:43.111Z,19.80
2022-08-01T03:19:12.486Z,19.80
2022-08-01T03:21:41.537Z,19.80
2022-08-01T03:24:11.013Z,19.80
2022-08-01T03:26:39.474Z,19.80
2022-08-01T03:29:23.885Z,19.80
2022-08-01T03:31:51.219Z,19.80
2022-08-01T03:34:19.317Z,19.80
2022-08-01T03:37:00.784Z,19.80
2022-08-01T03:39:34.768Z,19.70
2022-08-01T03:42:13.372Z,19.70
2022-08-01T03:44:42.385Z,19.70
2022-08-01T03:47:11.735Z,19.70
2022-08-01T03:49:44.246Z,19.70
2022-08-01T03:52:12.421Z,19.70
2022-08-01T03:54:44.877Z,19.70
2022-08-01T03:57:35.473Z,19.70
2022-08-01T04:00:00.709Z,19.60
2022-08-01T04:02:31.146Z,19.60
2022-08-01T04:04:58.152Z,19.60
2022-08-01T04:07:28.048Z,19.50
2022-08-01T04:09:55.248Z,19.50
2022-08-01T04:12:22.575Z,19.50
2022-08-01T04:14:50.178Z,19.50
2022-08-01T04:17:17.920Z,19.50
2022-08-01T04:19:45.945Z,19.50
2022-08-01T04:22:14.804Z,19.50
2022-08-01T04:24:43.593Z,19.50
2022-08-01T04:27:15.555Z,19.50
2022-08-01T04:29:43.835Z,19.50
2022-08-01T04:32:13.803Z,19.50
2022-08-01T04:34:42.894Z,19.50
2022-08-01T04:37:13.215Z,19.50
2022-08-01T04:39:50.627Z,19.50
2022-08-01T04:42:26.104Z,19.50
2022-08-01T04:44:57.412Z,19.50
2022-08-01T04:47:25.132Z,19.50
2022-08-01T04:49:52.484Z,19.50
2022-08-01T04:52:24.431Z,19.50
2022-08-01T04:54:51.819Z,19.50
2022-08-01T04:57:18.735Z,19.50
2022-08-01T04:59:45.709Z,19.50
2022-08-01T05:02:15.532Z,19.40
2022-08-01T05:04:43.812Z,19.50
2022-08-01T05:07:11.544Z,19.40
2022-08-01T05:09:39.425Z,19.40
2022-08-01T05:12:07.931Z,19.40
2022-08-01T05:14:35.382Z,19.40
2022-08-01T05:17:05.096Z,19.40
2022-08-01T05:19:34.011Z,19.50
2022-08-01T05:22:06.061Z,19.50
2022-08-01T05:24:38.011Z,19.50
2022-08-01T05:27:09.094Z,19.50
2022-08-01T05:29:44.224Z,19.50
2022-08-01T05:32:11.782Z,19.50
2022-08-01T05:34:38.752Z,19.50
2022-08-01T05:37:05.860Z,19.50
2022-08-01T05:39:32.928Z,19.50
2022-08-01T05:41:59.980Z,19.60
2022-08-01T05:44:26.987Z,19.70
2022-08-01T05:46:54.082Z,19.80
2022-08-01T05:49:23.164Z,19.80
2022-08-01T05:51:53.726Z,19.80
2022-08-01T05:54:21.743Z,19.90
2022-08-01T05:56:49.684Z,19.90
2022-08-01T05:59:21.164Z,20.00
2022-08-01T06:01:49.157Z,20.00
2022-08-01T06:04:16.104Z,20.10
2022-08-01T06:06:43.012Z,20.20
2022-08-01T06:09:09.977Z,20.20
2022-08-01T06:11:36.896Z,20.30
2022-08-01T06:14:03.950Z,20.30
2022-08-01T06:16:30.988Z,20.30
2022-08-01T06:18:57.897Z,20.40
2022-08-01T06:21:24.919Z,20.50
2022-08-01T06:23:51.889Z,20.70
2022-08-01T06:26:20.343Z,20.80
2022-08-01T06:28:47.448Z,20.80
2022-08-01T06:31:15.836Z,20.90
2022-08-01T06:33:42.791Z,21.00
2022-08-01T06:36:10.405Z,21.10
2022-08-01T06:38:38.455Z,21.10
2022-08-01T06:41:05.361Z,21.10
2022-08-01T06:43:32.558Z,21.20
2022-08-01T06:46:02.581Z,21.20
2022-08-01T06:48:29.581Z,21.30
2022-08-01T06:51:09.620Z,21.40
2022-08-01T06:53:38.385Z,21.50
2022-08-01T06:56:09.871Z,21.60
2022-08-01T06:58:36.881Z,21.70
2022-08-01T07:01:09.357Z,21.70
2022-08-01T07:03:53.013Z,21.80
2022-08-01T07:06:25.524Z,21.80
2022-08-01T07:08:53.430Z,21.90
2022-08-01T07:11:21.917Z,22.00
2022-08-01T07:13:55.043Z,22.10
2022-08-01T07:16:21.962Z,22.10
2022-08-01T07:18:50.034Z,22.10
2022-08-01T07:21:39.642Z,22.20
2022-08-01T07:24:15.499Z,22.30
2022-08-01T07:26:53.197Z,22.40
2022-08-01T07:29:24.109Z,22.50
2022-08-01T07:31:57.916Z,22.60
2022-08-01T07:34:26.714Z,22.60
2022-08-01T07:36:53.975Z,22.60
2022-08-01T07:39:22.084Z,22.60
2022-08-01T07:42:05.500Z,22.80
2022-08-01T07:44:37.338Z,23.00
2022-08-01T07:47:06.573Z,23.10
2022-08-01T07:49:40.390Z,23.40
2022-08-01T07:52:14.242Z,23.60
2022-08-01T07:54:42.282Z,23.90
2022-08-01T07:57:12.501Z,24.00
2022-08-01T07:59:41.698Z,24.20
2022-08-01T08:02:12.098Z,24.20
2022-08-01T08:04:40.402Z,24.40
2022-08-01T08:07:07.799Z,24.60
2022-08-01T08:09:38.165Z,24.80
2022-08-01T08:12:06.219Z,24.90
2022-08-01T08:14:36.657Z,25.10
2022-08-01T08:17:05.691Z,25.10
2022-08-01T08:19:39.004Z,25.30
2022-08-01T08:22:10.007Z,25.60
2022-08-01T08:24:45.589Z,25.90
2022-08-01T08:27:16.856Z,26.30
2022-08-01T08:29:47.185Z,26.60
2022-08-01T08:32:15.271Z,26.70
2022-08-01T08:34:44.369Z,26.70
2022-08-01T08:37:14.009Z,26.70
2022-08-01T08:39:45.165Z,26.60
2022-08-01T08:42:13.123Z,26.60
2022-08-01T08:44:44.713Z,26.70
2022-08-01T08:47:19.778Z,26.90
2022-08-01T08:49:54.794Z,27.10
2022-08-01T08:52:23.496Z,27.30
2022-08-01T08:54:54.227Z,27.40
2022-08-01T08:57:24.497Z,27.30
2022-08-01T08:59:55.793Z,27.10
2022-08-01T09:02:25.377Z,27.00
2022-08-01T09:04:53.072Z,27.20
2022-08-01T09:07:20.056Z,27.40
2022-08-01T09:09:50.327Z,27.50
2022-08-01T09:12:20.487Z,27.60
2022-08-01T09:14:53.348Z,27.70
2022-08-01T09:17:21.326Z,27.80
2022-08-01T09:19:55.383Z,27.80
2022-08-01T09:22:26.028Z,27.80
2022-08-01T09:25:12.069Z,27.80
2022-08-01T09:27:43.928Z,27.70
2022-08-01T09:30:19.653Z,27.50
2022-08-01T09:32:58.176Z,27.40
2022-08-01T09:35:43.375Z,27.30
2022-08-01T09:38:16.736Z,27.10
2022-08-01T09:40:58.078Z,26.90
2022-08-01T09:43:31.689Z,26.90
2022-08-01T09:46:05.354Z,26.90
2022-08-01T09:48:33.825Z,26.90
2022-08-01T09:51:09.517Z,26.80
2022-08-01T09:53:52.622Z,26.70
2022-08-01T09:56:23.915Z,26.70
2022-08-01T09:59:02.419Z,26.80
2022-08-01T10:01:49.397Z,26.90
2022-08-01T10:04:21.059Z,27.00
2022-08-01T10:06:55.286Z,27.10
2022-08-01T10:09:39.854Z,27.10
2022-08-01T10:12:15.891Z,27.10
2022-08-01T10:14:50.398Z,27.10
2022-08-01T10:17:20.390Z,27.20
2022-08-01T10:19:51.534Z,27.40
2022-08-01T10:22:24.484Z,27.60
2022-08-01T10:24:57.185Z,27.90
2022-08-01T10:27:38.441Z,28.00
2022-08-01T10:30:19.968Z,28.00
2022-08-01T10:32:55.857Z,27.90
2022-08-01T10:35:46.656Z,27.90
2022-08-01T10:38:15.830Z,27.80
2022-08-01T10:40:45.973Z,27.80
2022-08-01T10:43:21.830Z,27.80
2022-08-01T10:45:50.272Z,27.80
2022-08-01T10:48:29.791Z,27.80
2022-08-01T10:51:18.542Z,28.00
2022-08-01T10:53:56.234Z,28.10
2022-08-01T10:56:26.976Z,28.40
2022-08-01T10:59:06.151Z,28.60
2022-08-01T11:01:37.530Z,28.90
2022-08-01T11:04:17.719Z,29.10
2022-08-01T11:07:07.480Z,29.40
2022-08-01T11:09:48.208Z,29.60
2022-08-01T11:12:24.710Z,29.80
2022-08-01T11:15:02.805Z,29.80
2022-08-01T11:17:54.792Z,29.80
2022-08-01T11:20:26.158Z,29.60
2022-08-01T11:23:04.874Z,29.30
2022-08-01T11:26:05.329Z,29.10
2022-08-01T11:28:30.193Z,28.80
2022-08-01T11:31:14.485Z,28.60
2022-08-01T11:33:46.861Z,28.40
2022-08-01T11:36:15.616Z,28.30
2022-08-01T11:38:45.646Z,28.20
2022-08-01T11:41:38.765Z,28.20
2022-08-01T11:44:16.613Z,28.10
2022-08-01T11:47:09.654Z,28.00
2022-08-01T11:49:49.297Z,28.00
2022-08-01T11:52:29.935Z,27.90
2022-08-01T11:55:11.901Z,27.80
2022-08-01T11:57:48.587Z,27.60
2022-08-01T12:00:19.827Z,27.60
2022-08-01T12:03:04.526Z,27.60
2022-08-01T12:05:35.164Z,27.80
2022-08-01T12:08:07.936Z,28.10
2022-08-01T12:10:49.543Z,28.50
2022-08-01T12:13:21.113Z,28.80
2022-08-01T12:15:56.517Z,29.10
2022-08-01T12:18:23.853Z,29.40
2022-08-01T12:21:03.060Z,29.60
2022-08-01T12:23:33.182Z,29.70
2022-08-01T12:26:05.036Z,29.90
2022-08-01T12:28:41.818Z,30.10
2022-08-01T12:31:12.847Z,30.10
2022-08-01T12:33:39.932Z,30.10
2022-08-01T12:36:07.535Z,30.10
2022-08-01T12:38:35.538Z,30.10
2022-08-01T12:41:05.637Z,30.20
2022-08-01T12:43:35.584Z,30.20
2022-08-01T12:46:03.818Z,30.20
2022-08-01T12:48:32.499Z,30.20
2022-08-01T12:51:02.369Z,30.30
2022-08-01T12:53:40.734Z,30.30
2022-08-01T12:56:12.500Z,30.30
2022-08-01T12:58:42.865Z,30.40
2022-08-01T13:01:14.372Z,30.40
2022-08-01T13:04:01.928Z,30.30
2022-08-01T13:06:32.030Z,30.20
2022-08-01T13:09:13.467Z,30.00
2022-08-01T13:12:04.191Z,29.90
2022-08-01T13:14:33.477Z,29.50
2022-08-01T13:17:04.128Z,29.20
2022-08-01T13:19:57.400Z,29.00
2022-08-01T13:22:41.361Z,28.70
2022-08-01T13:25:14.284Z,28.40
2022-08-01T13:27:52.126Z,28.20
2022-08-01T13:30:27.044Z,28.20
2022-08-01T13:33:06.278Z,28.10
2022-08-01T13:35:35.308Z,28.00
2022-08-01T13:38:05.349Z,27.90
2022-08-01T13:40:32.445Z,27.90
2022-08-01T13:43:01.403Z,28.00
2022-08-01T13:45:29.409Z,28.10
2022-08-01T13:48:11.777Z,28.00
2022-08-01T13:50:40.143Z,28.00
2022-08-01T13:53:07.196Z,28.20
2022-08-01T13:55:37.911Z,28.40
2022-08-01T13:58:07.672Z,28.70
2022-08-01T14:00:34.746Z,28.80
2022-08-01T14:03:04.740Z,28.90
2022-08-01T14:05:31.748Z,29.10
2022-08-01T14:07:59.784Z,29.20
2022-08-01T14:10:30.745Z,29.20
2022-08-01T14:13:00.189Z,29.20
2022-08-01T14:15:38.268Z,29.30
2022-08-01T14:18:10.106Z,29.40
2022-08-01T14:20:39.435Z,29.30
2022-08-01T14:23:10.695Z,29.20
2022-08-01T14:26:03.388Z,29.20
2022-08-01T14:28:26.496Z,29.20
2022-08-01T14:31:00.436Z,29.10
2022-08-01T14:33:30.348Z,29.00
2022-08-01T14:36:05.175Z,29.00
2022-08-01T14:38:47.440Z,29.00
2022-08-01T14:41:16.077Z,28.80
2022-08-01T14:43:46.159Z,28.80
2022-08-01T14:46:16.434Z,28.80
2022-08-01T14:48:44.480Z,28.80
2022-08-01T14:51:13.525Z,28.70
2022-08-01T14:53:41.545Z,28.60
2022-08-01T14:56:13.680Z,28.60
2022-08-01T14:58:40.643Z,28.50
2022-08-01T15:01:08.739Z,28.40
2022-08-01T15:03:41.785Z,28.30
2022-08-01T15:06:10.864Z,28.20
2022-08-01T15:08:39.897Z,28.20
2022-08-01T15:11:09.646Z,28.20
2022-08-01T15:13:41.880Z,28.20
2022-08-01T15:16:12.580Z,28.10
2022-08-01T15:18:43.260Z,27.90
2022-08-01T15:21:24.852Z,27.90
2022-08-01T15:24:00.536Z,27.80
2022-08-01T15:26:29.303Z,27.70
2022-08-01T15:28:56.468Z,27.60
2022-08-01T15:31:23.504Z,27.50
2022-08-01T15:33:55.403Z,27.40
2022-08-01T15:36:25.543Z,27.40
2022-08-01T15:38:53.720Z,27.40
2022-08-01T15:41:20.608Z,27.40
2022-08-01T15:43:47.522Z,27.40
2022-08-01T15:46:23.567Z,27.40
2022-08-01T15:48:53.731Z,27.40
2022-08-01T15:51:21.849Z,27.40
2022-08-01T15:53:50.208Z,27.30
2022-08-01T15:56:20.326Z,27.10
2022-08-01T15:58:47.380Z,27.00
2022-08-01T16:01:15.422Z,27.00
2022-08-01T16:03:42.461Z,26.90
2022-08-01T16:06:09.620Z,26.80
2022-08-01T16:08:37.956Z,26.70
2022-08-01T16:11:04.875Z,26.70
2022-08-01T16:13:35.098Z,26.60
2022-08-01T16:16:05.232Z,26.50
2022-08-01T16:18:32.224Z,26.50
2022-08-01T16:21:02.483Z,26.50
2022-08-01T16:23:32.539Z,26.50
2022-08-01T16:25:59.580Z,26.50
2022-08-01T16:28:27.521Z,26.50
2022-08-01T16:31:23.089Z,26.50
2022-08-01T16:33:54.274Z,26.50
2022-08-01T16:36:25.002Z,26.40
2022-08-01T16:38:54.378Z,26.40
2022-08-01T16:41:24.423Z,26.30
2022-08-01T16:43:54.188Z,26.20
2022-08-01T16:46:26.892Z,26.10
2022-08-01T16:48:56.051Z,26.00
2022-08-01T16:51:24.672Z,26.00
2022-08-01T16:53:52.713Z,25.90
2022-08-01T16:56:20.360Z,25.80
2022-08-01T16:58:48.414Z,25.70
2022-08-01T17:01:58.154Z,25.70
2022-08-01T17:04:05.569Z,25.60
2022-08-01T17:06:32.500Z,25.50
2022-08-01T17:08:59.422Z,25.50
2022-08-01T17:11:29.512Z,25.50
2022-08-01T17:13:59.504Z,25.50
2022-08-01T17:16:26.735Z,25.50
2022-08-01T17:18:54.973Z,25.40
2022-08-01T17:21:24.889Z,25.40
2022-08-01T17:23:54.968Z,25.30
2022-08-01T17:26:22.066Z,25.20
2022-08-01T17:28:51.437Z,25.20
2022-08-01T17:31:21.488Z,25.10
2022-08-01T17:33:54.769Z,25.00
2022-08-01T17:36:25.356Z,24.90
2022-08-01T17:38:55.480Z,24.80
2022-08-01T17:41:22.461Z,24.70
2022-08-01T17:43:49.410Z,24.70
2022-08-01T17:46:17.084Z,24.60
2022-08-01T17:48:46.788Z,24.60
2022-08-01T17:51:15.388Z,24.50
2022-08-01T17:53:55.569Z,24.40
2022-08-01T17:56:33.630Z,24.30
2022-08-01T17:59:04.322Z,24.20
2022-08-01T18:01:32.405Z,24.10
2022-08-01T18:04:01.823Z,24.00
2022-08-01T18:06:28.917Z,23.90
2022-08-01T18:08:59.629Z,23.80
2022-08-01T18:11:37.369Z,23.80
2022-08-01T18:14:07.873Z,23.70
2022-08-01T18:16:34.918Z,23.70
2022-08-01T18:19:02.007Z,23.70
2022-08-01T18:21:33.706Z,23.70
2022-08-01T18:24:01.883Z,23.60
2022-08-01T18:26:31.964Z,23.50
2022-08-01T18:28:59.009Z,23.40
2022-08-01T18:31:26.107Z,23.40
2022-08-01T18:33:53.453Z,23.30
2022-08-01T18:36:32.276Z,23.30
2022-08-01T18:39:04.595Z,23.30
2022-08-01T18:41:33.606Z,23.20
2022-08-01T18:44:05.629Z,23.20
2022-08-01T18:46:36.109Z,23.10
2022-08-01T18:49:03.223Z,23.00
2022-08-01T18:51:30.256Z,23.00
2022-08-01T18:53:59.395Z,22.90
2022-08-01T18:56:26.801Z,22.90
2022-08-01T18:58:54.800Z,22.90
2022-08-01T19:01:22.560Z,22.80
2022-08-01T19:03:49.596Z,22.80
2022-08-01T19:06:16.617Z,22.80
2022-08-01T19:08:44.771Z,22.70
2022-08-01T19:11:11.802Z,22.70
2022-08-01T19:13:38.766Z,22.60
2022-08-01T19:16:06.246Z,22.50
2022-08-01T19:18:33.931Z,22.50
2022-08-01T19:21:07.064Z,22.40
2022-08-01T19:23:52.907Z,22.40
2022-08-01T19:26:23.757Z,22.30
2022-08-01T19:28:53.610Z,22.30
2022-08-01T19:31:24.385Z,22.20
2022-08-01T19:33:52.548Z,22.20
2022-08-01T19:36:20.660Z,22.10
2022-08-01T19:38:48.061Z,22.10
2022-08-01T19:41:17.164Z,22.00
2022-08-01T19:43:46.743Z,22.00
2022-08-01T19:46:17.304Z,22.00
2022-08-01T19:48:49.997Z,22.00
2022-08-01T19:51:22.283Z,22.00
2022-08-01T19:53:55.433Z,22.00
2022-08-01T19:56:25.329Z,22.00
2022-08-01T19:58:59.962Z,22.00
2022-08-01T20:01:27.640Z,21.90
2022-08-01T20:03:56.081Z,21.90
2022-08-01T20:06:24.470Z,21.80
2022-08-01T20:08:52.413Z,21.80
2022-08-01T20:11:22.009Z,21.80
2022-08-01T20:13:50.868Z,21.80
2022-08-01T20:16:18.027Z,21.70
2022-08-01T20:18:45.236Z,21.70
2022-08-01T20:21:12.940Z,21.60
2022-08-01T20:23:41.518Z,21.60
2022-08-01T20:26:10.332Z,21.50
2022-08-01T20:28:41.862Z,21.50
2022-08-01T20:31:09.803Z,21.50
2022-08-01T20:33:42.256Z,21.40
2022-08-01T20:36:12.286Z,21.40
2022-08-01T20:38:55.100Z,21.40
2022-08-01T20:41:26.804Z,21.30
2022-08-01T20:43:55.626Z,21.30
2022-08-01T20:46:27.128Z,21.30
2022-08-01T20:48:55.969Z,21.20
2022-08-01T20:51:27.751Z,21.20
2022-08-01T20:53:56.250Z,21.20
2022-08-01T20:56:36.481Z,21.10
2022-08-01T20:59:52.699Z,21.10
2022-08-01T21:02:52.038Z,21.00
2022-08-01T21:05:30.187Z,21.00
2022-08-01T21:08:12.653Z,20.90
2022-08-01T21:10:41.749Z,20.90
2022-08-01T21:13:20.534Z,20.90
2022-08-01T21:16:11.871Z,20.80
2022-08-01T21:19:24.367Z,20.80
2022-08-01T21:22:06.985Z,20.70
2022-08-01T21:25:01.797Z,20.60
2022-08-01T21:27:33.713Z,20.60
2022-08-01T21:30:04.330Z,20.50
2022-08-01T21:32:33.076Z,20.50
2022-08-01T21:35:02.757Z,20.40
2022-08-01T21:37:31.431Z,20.40
2022-08-01T21:40:09.496Z,20.30
2022-08-01T21:42:39.338Z,20.30
2022-08-01T21:45:09.582Z,20.20
2022-08-01T21:47:37.826Z,20.20
2022-08-01T21:50:05.373Z,20.10
2022-08-01T21:52:46.764Z,20.10
2022-08-01T21:55:51.819Z,20.10
2022-08-01T21:58:33.948Z,20.00
2022-08-01T22:01:33.712Z,20.00
2022-08-01T22:04:33.477Z,19.90
2022-08-01T22:07:01.702Z,19.90
2022-08-01T22:09:31.280Z,19.90
2022-08-01T22:12:03.869Z,19.80
2022-08-01T22:14:33.722Z,19.70
2022-08-01T22:17:01.766Z,19.70
2022-08-01T22:19:36.573Z,19.70
2022-08-01T22:22:44.480Z,19.70
2022-08-01T22:25:02.114Z,19.60
2022-08-01T22:28:03.164Z,19.60
2022-08-01T22:30:18.402Z,19.60
2022-08-01T22:33:07.981Z,19.60
2022-08-01T22:35:35.665Z,19.50
2022-08-01T22:38:02.690Z,19.50
2022-08-01T22:40:34.589Z,19.50
2022-08-01T22:43:11.731Z,19.40
2022-08-01T22:46:31.570Z,19.40
2022-08-01T22:49:22.630Z,19.40
2022-08-01T22:51:55.714Z,19.40
2022-08-01T22:54:30.258Z,19.30
2022-08-01T22:56:59.032Z,19.30
2022-08-01T22:59:48.626Z,19.30
2022-08-01T23:02:17.512Z,19.30
2022-08-01T23:04:49.764Z,19.30
2022-08-01T23:07:23.379Z,19.30
2022-08-01T23:09:55.564Z,19.30
2022-08-01T23:12:27.026Z,19.30
2022-08-01T23:14:56.326Z,19.30
2022-08-01T23:17:27.111Z,19.30
2022-08-01T23:20:03.497Z,19.20
2022-08-01T23:22:33.439Z,19.20
2022-08-01T23:25:06.887Z,19.20
2022-08-01T23:28:03.658Z,19.20
2022-08-01T23:30:31.072Z,19.20
2022-08-01T23:32:58.491Z,19.20
2022-08-01T23:35:26.108Z,19.20
2022-08-01T23:37:53.479Z,19.20
2022-08-01T23:40:22.188Z,19.20
2022-08-01T23:42:54.797Z,19.20
2022-08-01T23:45:22.252Z,19.20
2022-08-01T23:47:49.232Z,19.20
2022-08-01T23:50:16.179Z,19.20
2022-08-01T23:52:49.632Z,19.10
2022-08-01T23:55:19.082Z,19.20
2022-08-01T23:57:46.013Z,19.20
